Private Wetterstation Nrnberg - Katzwang
Wetterdaten: Juli 2012
Datum Temp. A. Feuchte A. Luftdruck Regen Wind Richtung Taupunkt Windchill Windben
01.07.2012 17,8 C 83 % 1017 hPa 11,9 l/m 0,0 km/h W-NW 14,8 C 17,8 C 1,0 km/h
02.07.2012 18,8 C 82 % 1015 hPa 3,1 l/m 2,7 km/h NO 15,6 C 18,5 C 3,7 km/h
03.07.2012 21,4 C 74 % 1015 hPa 1,0 l/m 0,3 km/h W-NW 16,5 C 21,4 C 1,4 km/h
04.07.2012 23,4 C 67 % 1011 hPa 0,0 l/m 0,5 km/h NO 16,6 C 23,4 C 1,5 km/h
05.07.2012 21,6 C 78 % 1009 hPa 24,9 l/m 2,6 km/h N-NO 17,6 C 21,3 C 3,6 km/h
06.07.2012 21,7 C 72 % 1011 hPa 3,6 l/m 2,1 km/h W-NW 16,3 C 21,7 C 3,1 km/h
07.07.2012 19,9 C 78 % 1012 hPa 3,6 l/m 5,6 km/h NO 15,8 C 19,3 C 6,6 km/h
08.07.2012 21,0 C 67 % 1009 hPa 0,0 l/m 4,6 km/h W-NW 14,4 C 20,2 C 5,6 km/h
09.07.2012 21,3 C 58 % 1012 hPa 0,0 l/m 4,8 km/h W-NW 12,5 C 21,0 C 5,8 km/h
10.07.2012 22,5 C 58 % 1011 hPa 0,0 l/m 5,8 km/h W-NW 13,3 C 22,4 C 6,8 km/h
11.07.2012 19,8 C 58 % 1013 hPa 0,5 l/m 2,2 km/h W-NW 11,0 C 19,8 C 3,2 km/h
12.07.2012 16,5 C 67 % 1014 hPa 2,1 l/m 11,1 km/h W-NW 10,3 C 15,1 C 15,7 km/h
13.07.2012 16,4 C 78 % 1007 hPa 4,1 l/m 1,4 km/h NO 12,5 C 16,4 C 2,4 km/h
14.07.2012 18,3 C 65 % 1007 hPa 2,6 l/m 5,0 km/h W-NW 11,5 C 18,2 C 6,0 km/h
15.07.2012 15,4 C 74 % 1014 hPa 2,6 l/m 4,3 km/h W-NW 10,7 C 14,9 C 5,3 km/h
16.07.2012 16,2 C 65 % 1022 hPa 1,0 l/m 3,4 km/h W-NW 9,4 C 15,5 C 4,4 km/h
17.07.2012 17,5 C 70 % 1020 hPa 0,5 l/m 8,4 km/h W-NW 11,8 C 16,6 C 9,4 km/h
18.07.2012 21,4 C 63 % 1014 hPa 0,0 l/m 3,8 km/h W-NW 13,8 C 21,2 C 4,8 km/h
19.07.2012 19,4 C 62 % 1010 hPa 0,0 l/m 5,3 km/h W-NW 11,7 C 19,3 C 6,3 km/h
20.07.2012 16,3 C 76 % 1014 hPa 1,0 l/m 2,8 km/h W-NW 12,0 C 16,3 C 3,8 km/h
21.07.2012 14,9 C 79 % 1018 hPa 1,6 l/m 1,4 km/h N-NO 11,2 C 14,9 C 2,3 km/h
22.07.2012 15,3 C 60 % 1024 hPa 0,0 l/m 0,5 km/h NO 7,0 C 15,3 C 1,5 km/h
23.07.2012 18,9 C 56 % 1023 hPa 0,0 l/m 8,7 km/h O 9,2 C 17,8 C 12,6 km/h
24.07.2012 24,0 C 56 % 1014 hPa 0,0 l/m 3,6 km/h O 14,3 C 23,9 C 4,6 km/h
25.07.2012 23,3 C 63 % 1014 hPa 0,0 l/m 7,6 km/h NO 15,6 C 22,6 C 8,6 km/h
26.07.2012 26,5 C 56 % 1014 hPa 0,0 l/m 0,0 km/h O 16,4 C 26,5 C 1,0 km/h
27.07.2012 28,3 C 51 % 1010 hPa 0,0 l/m 8,1 km/h NO 16,2 C 28,0 C 9,1 km/h
28.07.2012 23,1 C 69 % 1008 hPa 1,0 l/m 1,6 km/h N 16,9 C 23,1 C 2,6 km/h
29.07.2012 19,6 C 63 % 1013 hPa 1,6 l/m 3,6 km/h W-NW 12,2 C 19,3 C 4,6 km/h
30.07.2012 19,0 C 55 % 1016 hPa 0,0 l/m 4,3 km/h W-NW 9,3 C 18,4 C 5,3 km/h
31.07.2012 20,7 C 61 % 1017 hPa 0,0 l/m 0,7 km/h W-NW 12,6 C 20,7 C 1,7 km/h
Min-Datum 23.07.12 27.07.12 14.07.12 17 Tage 01.07.12 - 23.07.12 23.07.12 01.07.12
Min-Zeit 06:10 17:50 04:30 - 00:10 - 05:50 06:10 00:10
Minimum 7,6 C 29 % 1002 hPa - 0,0 km/h - 4,6 C 7,6 C 1,0 km/h
Max-Datum 27.07.12 02.07.12 23.07.12 05.07.12 14.07.12 - 05.07.12 27.07.12 14.07.12
Max-Zeit 14:10 04:30 07:50 03:50 15:50 - 12:00 14:10 12:40
Maximum 36,8 C 86 % 1027 hPa 24,9 l/m 34,2 km/h
W-NW
- 21,0 C 36,8 C 63,9 km/h
W-NW
Durchschnitt 20,0 C 66 % 1014 hPa #66,8 l/m 3,8 km/h W-NW 13,2 C 19,7 C 5,0 km/h

Durchschnitt Minimum Temp.14,6 C
Durchschnitt Maximum Temp.25,1 C